sensor_id;sensor_type;location;lat;lon;timestamp;P1;durP1;ratioP1;P2;durP2;ratioP2
75603;SDS011;64187;51.010;13.792;2023-06-10T00:03:44;9.00;;;8.10;;
75603;SDS011;64187;51.010;13.792;2023-06-10T00:08:43;10.45;;;9.05;;
75603;SDS011;64187;51.010;13.792;2023-06-10T00:13:42;10.90;;;9.13;;
75603;SDS011;64187;51.010;13.792;2023-06-10T00:18:41;10.32;;;9.25;;
75603;SDS011;64187;51.010;13.792;2023-06-10T00:23:42;11.10;;;8.85;;
75603;SDS011;64187;51.010;13.792;2023-06-10T00:28:40;10.45;;;9.35;;
75603;SDS011;64187;51.010;13.792;2023-06-10T00:33:39;10.95;;;9.20;;
75603;SDS011;64187;51.010;13.792;2023-06-10T00:38:38;12.07;;;9.48;;
75603;SDS011;64187;51.010;13.792;2023-06-10T00:43:40;12.63;;;9.65;;
75603;SDS011;64187;51.010;13.792;2023-06-10T00:48:39;11.40;;;10.25;;
75603;SDS011;64187;51.010;13.792;2023-06-10T00:53:40;14.00;;;10.65;;
75603;SDS011;64187;51.010;13.792;2023-06-10T00:58:39;10.63;;;9.18;;
75603;SDS011;64187;51.010;13.792;2023-06-10T01:03:41;13.10;;;11.00;;
75603;SDS011;64187;51.010;13.792;2023-06-10T01:08:41;11.82;;;9.90;;
75603;SDS011;64187;51.010;13.792;2023-06-10T01:13:49;10.38;;;9.27;;
75603;SDS011;64187;51.010;13.792;2023-06-10T01:18:50;11.18;;;9.77;;
75603;SDS011;64187;51.010;13.792;2023-06-10T01:23:54;9.73;;;8.73;;
75603;SDS011;64187;51.010;13.792;2023-06-10T01:28:54;11.20;;;9.75;;
75603;SDS011;64187;51.010;13.792;2023-06-10T01:33:58;9.57;;;8.48;;
75603;SDS011;64187;51.010;13.792;2023-06-10T01:38:57;11.50;;;8.85;;
75603;SDS011;64187;51.010;13.792;2023-06-10T01:43:58;14.60;;;10.23;;
75603;SDS011;64187;51.010;13.792;2023-06-10T01:48:57;12.32;;;9.18;;
75603;SDS011;64187;51.010;13.792;2023-06-10T01:53:56;12.75;;;10.43;;
75603;SDS011;64187;51.010;13.792;2023-06-10T01:58:54;11.13;;;8.90;;
75603;SDS011;64187;51.010;13.792;2023-06-10T02:08:56;10.73;;;9.05;;
75603;SDS011;64187;51.010;13.792;2023-06-10T02:13:55;12.40;;;10.02;;
75603;SDS011;64187;51.010;13.792;2023-06-10T02:18:53;10.07;;;8.85;;
75603;SDS011;64187;51.010;13.792;2023-06-10T02:23:53;12.95;;;9.93;;
75603;SDS011;64187;51.010;13.792;2023-06-10T02:28:52;11.38;;;8.85;;
75603;SDS011;64187;51.010;13.792;2023-06-10T02:33:51;12.15;;;9.90;;
75603;SDS011;64187;51.010;13.792;2023-06-10T02:38:50;14.27;;;10.65;;
75603;SDS011;64187;51.010;13.792;2023-06-10T02:43:49;12.18;;;9.77;;
75603;SDS011;64187;51.010;13.792;2023-06-10T02:48:49;11.90;;;10.18;;
75603;SDS011;64187;51.010;13.792;2023-06-10T02:53:53;13.65;;;9.98;;
75603;SDS011;64187;51.010;13.792;2023-06-10T02:58:52;12.23;;;9.50;;
75603;SDS011;64187;51.010;13.792;2023-06-10T03:03:53;12.25;;;10.35;;
75603;SDS011;64187;51.010;13.792;2023-06-10T03:08:55;11.80;;;10.10;;
75603;SDS011;64187;51.010;13.792;2023-06-10T03:13:54;11.35;;;9.98;;
75603;SDS011;64187;51.010;13.792;2023-06-10T03:18:54;13.63;;;10.15;;
75603;SDS011;64187;51.010;13.792;2023-06-10T03:23:54;11.88;;;9.38;;
75603;SDS011;64187;51.010;13.792;2023-06-10T03:28:53;11.95;;;9.60;;
75603;SDS011;64187;51.010;13.792;2023-06-10T03:33:55;12.18;;;9.57;;
75603;SDS011;64187;51.010;13.792;2023-06-10T03:38:54;11.38;;;9.25;;
75603;SDS011;64187;51.010;13.792;2023-06-10T03:43:56;13.50;;;9.60;;
75603;SDS011;64187;51.010;13.792;2023-06-10T03:48:55;12.15;;;10.15;;
75603;SDS011;64187;51.010;13.792;2023-06-10T03:53:54;12.40;;;9.00;;
75603;SDS011;64187;51.010;13.792;2023-06-10T03:58:54;10.95;;;9.05;;
75603;SDS011;64187;51.010;13.792;2023-06-10T04:03:53;11.23;;;9.95;;
75603;SDS011;64187;51.010;13.792;2023-06-10T04:08:53;12.18;;;8.85;;
75603;SDS011;64187;51.010;13.792;2023-06-10T04:13:52;12.30;;;10.30;;
75603;SDS011;64187;51.010;13.792;2023-06-10T04:18:52;9.65;;;8.45;;
75603;SDS011;64187;51.010;13.792;2023-06-10T04:23:52;12.88;;;9.40;;
75603;SDS011;64187;51.010;13.792;2023-06-10T04:28:51;12.25;;;9.15;;
75603;SDS011;64187;51.010;13.792;2023-06-10T04:33:50;10.20;;;8.68;;
75603;SDS011;64187;51.010;13.792;2023-06-10T04:38:49;12.60;;;9.48;;
75603;SDS011;64187;51.010;13.792;2023-06-10T04:43:51;10.90;;;8.52;;
75603;SDS011;64187;51.010;13.792;2023-06-10T04:48:50;12.52;;;9.50;;
75603;SDS011;64187;51.010;13.792;2023-06-10T04:53:50;12.63;;;11.10;;
75603;SDS011;64187;51.010;13.792;2023-06-10T04:58:49;11.93;;;10.35;;
75603;SDS011;64187;51.010;13.792;2023-06-10T05:03:48;13.25;;;11.48;;
75603;SDS011;64187;51.010;13.792;2023-06-10T05:08:47;13.07;;;10.52;;
75603;SDS011;64187;51.010;13.792;2023-06-10T05:13:46;12.38;;;10.18;;
75603;SDS011;64187;51.010;13.792;2023-06-10T05:18:45;11.35;;;10.15;;
75603;SDS011;64187;51.010;13.792;2023-06-10T05:23:44;14.55;;;11.27;;
75603;SDS011;64187;51.010;13.792;2023-06-10T05:28:43;10.57;;;8.88;;
75603;SDS011;64187;51.010;13.792;2023-06-10T05:33:42;10.10;;;9.10;;
75603;SDS011;64187;51.010;13.792;2023-06-10T05:38:41;12.20;;;10.18;;
75603;SDS011;64187;51.010;13.792;2023-06-10T05:43:40;12.45;;;10.52;;
75603;SDS011;64187;51.010;13.792;2023-06-10T05:48:39;13.05;;;10.23;;
75603;SDS011;64187;51.010;13.792;2023-06-10T05:53:38;12.00;;;10.63;;
75603;SDS011;64187;51.010;13.792;2023-06-10T05:58:38;16.42;;;10.63;;
75603;SDS011;64187;51.010;13.792;2023-06-10T06:03:37;11.70;;;9.93;;
75603;SDS011;64187;51.010;13.792;2023-06-10T06:08:36;10.77;;;9.25;;
75603;SDS011;64187;51.010;13.792;2023-06-10T06:13:35;10.25;;;9.15;;
75603;SDS011;64187;51.010;13.792;2023-06-10T06:18:34;10.40;;;8.23;;
75603;SDS011;64187;51.010;13.792;2023-06-10T06:23:33;10.20;;;8.48;;
75603;SDS011;64187;51.010;13.792;2023-06-10T06:28:32;10.30;;;9.18;;
75603;SDS011;64187;51.010;13.792;2023-06-10T06:33:30;10.13;;;9.10;;
75603;SDS011;64187;51.010;13.792;2023-06-10T06:38:30;8.52;;;7.72;;
75603;SDS011;64187;51.010;13.792;2023-06-10T06:43:30;9.27;;;8.38;;
75603;SDS011;64187;51.010;13.792;2023-06-10T06:48:35;9.50;;;7.65;;
75603;SDS011;64187;51.010;13.792;2023-06-10T06:53:34;8.52;;;7.60;;
75603;SDS011;64187;51.010;13.792;2023-06-10T06:58:34;8.95;;;8.05;;
75603;SDS011;64187;51.010;13.792;2023-06-10T07:03:33;10.00;;;9.00;;
75603;SDS011;64187;51.010;13.792;2023-06-10T07:08:32;9.90;;;7.53;;
75603;SDS011;64187;51.010;13.792;2023-06-10T07:13:31;8.23;;;6.90;;
75603;SDS011;64187;51.010;13.792;2023-06-10T07:18:30;7.65;;;6.68;;
75603;SDS011;64187;51.010;13.792;2023-06-10T07:23:29;9.25;;;7.70;;
75603;SDS011;64187;51.010;13.792;2023-06-10T07:28:28;7.90;;;7.07;;
75603;SDS011;64187;51.010;13.792;2023-06-10T07:33:27;7.68;;;6.68;;
75603;SDS011;64187;51.010;13.792;2023-06-10T07:38:26;4.80;;;3.38;;
75603;SDS011;64187;51.010;13.792;2023-06-10T07:43:28;7.40;;;3.95;;
75603;SDS011;64187;51.010;13.792;2023-06-10T07:48:27;6.50;;;5.45;;
75603;SDS011;64187;51.010;13.792;2023-06-10T07:53:26;8.43;;;5.47;;
75603;SDS011;64187;51.010;13.792;2023-06-10T07:58:25;6.88;;;6.15;;
75603;SDS011;64187;51.010;13.792;2023-06-10T08:03:24;7.13;;;6.07;;
75603;SDS011;64187;51.010;13.792;2023-06-10T08:08:23;8.05;;;6.10;;
75603;SDS011;64187;51.010;13.792;2023-06-10T08:13:21;8.20;;;7.22;;
75603;SDS011;64187;51.010;13.792;2023-06-10T08:18:21;8.90;;;7.30;;
75603;SDS011;64187;51.010;13.792;2023-06-10T08:23:19;8.38;;;7.00;;
75603;SDS011;64187;51.010;13.792;2023-06-10T08:28:18;8.90;;;7.10;;
75603;SDS011;64187;51.010;13.792;2023-06-10T08:33:17;8.88;;;7.10;;
75603;SDS011;64187;51.010;13.792;2023-06-10T08:38:16;7.75;;;7.05;;
75603;SDS011;64187;51.010;13.792;2023-06-10T08:48:39;7.15;;;6.45;;
75603;SDS011;64187;51.010;13.792;2023-06-10T08:53:50;6.63;;;5.90;;
75603;SDS011;64187;51.010;13.792;2023-06-10T08:58:59;7.18;;;6.47;;
75603;SDS011;64187;51.010;13.792;2023-06-10T09:03:58;7.65;;;6.93;;
75603;SDS011;64187;51.010;13.792;2023-06-10T09:08:58;7.43;;;6.72;;
75603;SDS011;64187;51.010;13.792;2023-06-10T09:14:01;7.13;;;6.30;;
75603;SDS011;64187;51.010;13.792;2023-06-10T09:19:00;7.25;;;6.45;;
75603;SDS011;64187;51.010;13.792;2023-06-10T09:23:59;7.35;;;6.75;;
75603;SDS011;64187;51.010;13.792;2023-06-10T09:29:02;7.68;;;6.68;;
75603;SDS011;64187;51.010;13.792;2023-06-10T09:34:07;7.07;;;6.38;;
75603;SDS011;64187;51.010;13.792;2023-06-10T09:39:15;8.27;;;6.68;;
75603;SDS011;64187;51.010;13.792;2023-06-10T09:44:17;8.35;;;7.18;;
75603;SDS011;64187;51.010;13.792;2023-06-10T09:49:17;8.52;;;6.93;;
75603;SDS011;64187;51.010;13.792;2023-06-10T09:54:16;6.97;;;6.28;;
75603;SDS011;64187;51.010;13.792;2023-06-10T09:59:15;8.77;;;6.93;;
75603;SDS011;64187;51.010;13.792;2023-06-10T10:04:14;9.18;;;7.32;;
75603;SDS011;64187;51.010;13.792;2023-06-10T10:09:22;8.38;;;6.55;;
75603;SDS011;64187;51.010;13.792;2023-06-10T10:14:20;7.13;;;6.50;;
75603;SDS011;64187;51.010;13.792;2023-06-10T10:19:23;7.93;;;7.13;;
75603;SDS011;64187;51.010;13.792;2023-06-10T10:24:30;8.15;;;6.88;;
75603;SDS011;64187;51.010;13.792;2023-06-10T10:29:36;7.20;;;6.50;;
75603;SDS011;64187;51.010;13.792;2023-06-10T10:40:15;7.13;;;6.43;;
75603;SDS011;64187;51.010;13.792;2023-06-10T10:45:15;8.98;;;8.07;;
75603;SDS011;64187;51.010;13.792;2023-06-10T10:50:15;8.48;;;7.30;;
75603;SDS011;64187;51.010;13.792;2023-06-10T10:55:15;9.40;;;6.57;;
75603;SDS011;64187;51.010;13.792;2023-06-10T11:00:14;8.90;;;6.03;;
75603;SDS011;64187;51.010;13.792;2023-06-10T11:05:37;6.72;;;6.13;;
75603;SDS011;64187;51.010;13.792;2023-06-10T11:10:37;7.53;;;6.13;;
75603;SDS011;64187;51.010;13.792;2023-06-10T11:15:45;6.25;;;5.65;;
75603;SDS011;64187;51.010;13.792;2023-06-10T11:25:48;7.38;;;6.40;;
75603;SDS011;64187;51.010;13.792;2023-06-10T11:30:46;7.10;;;6.32;;
75603;SDS011;64187;51.010;13.792;2023-06-10T11:35:56;7.75;;;6.40;;
75603;SDS011;64187;51.010;13.792;2023-06-10T11:40:56;8.48;;;7.18;;
75603;SDS011;64187;51.010;13.792;2023-06-10T11:45:56;8.60;;;6.75;;
75603;SDS011;64187;51.010;13.792;2023-06-10T11:50:55;7.45;;;6.43;;
75603;SDS011;64187;51.010;13.792;2023-06-10T11:55:54;7.45;;;6.28;;
75603;SDS011;64187;51.010;13.792;2023-06-10T12:00:54;10.55;;;7.10;;
75603;SDS011;64187;51.010;13.792;2023-06-10T12:06:00;9.52;;;6.93;;
75603;SDS011;64187;51.010;13.792;2023-06-10T12:11:01;7.25;;;6.55;;
75603;SDS011;64187;51.010;13.792;2023-06-10T12:16:09;9.45;;;8.40;;
75603;SDS011;64187;51.010;13.792;2023-06-10T12:21:18;8.45;;;6.03;;
75603;SDS011;64187;51.010;13.792;2023-06-10T12:26:19;6.32;;;5.72;;
75603;SDS011;64187;51.010;13.792;2023-06-10T12:31:18;6.63;;;5.97;;
75603;SDS011;64187;51.010;13.792;2023-06-10T12:36:17;7.03;;;6.32;;
75603;SDS011;64187;51.010;13.792;2023-06-10T12:41:16;7.45;;;5.50;;
75603;SDS011;64187;51.010;13.792;2023-06-10T12:46:15;6.78;;;6.18;;
75603;SDS011;64187;51.010;13.792;2023-06-10T12:51:15;7.00;;;6.30;;
75603;SDS011;64187;51.010;13.792;2023-06-10T12:56:14;7.43;;;6.68;;
75603;SDS011;64187;51.010;13.792;2023-06-10T13:01:13;6.72;;;6.07;;
75603;SDS011;64187;51.010;13.792;2023-06-10T13:06:12;11.02;;;6.32;;
75603;SDS011;64187;51.010;13.792;2023-06-10T13:11:11;8.30;;;6.03;;
75603;SDS011;64187;51.010;13.792;2023-06-10T13:16:10;6.80;;;6.13;;
75603;SDS011;64187;51.010;13.792;2023-06-10T13:21:09;7.18;;;5.90;;
75603;SDS011;64187;51.010;13.792;2023-06-10T13:26:07;8.98;;;5.68;;
75603;SDS011;64187;51.010;13.792;2023-06-10T13:31:06;5.32;;;4.75;;
75603;SDS011;64187;51.010;13.792;2023-06-10T13:36:05;7.05;;;4.93;;
75603;SDS011;64187;51.010;13.792;2023-06-10T13:41:04;6.15;;;5.00;;
75603;SDS011;64187;51.010;13.792;2023-06-10T13:46:04;5.40;;;4.88;;
75603;SDS011;64187;51.010;13.792;2023-06-10T13:51:03;5.65;;;5.05;;
75603;SDS011;64187;51.010;13.792;2023-06-10T13:56:02;8.25;;;5.15;;
75603;SDS011;64187;51.010;13.792;2023-06-10T14:01:01;6.13;;;5.35;;
75603;SDS011;64187;51.010;13.792;2023-06-10T14:06:00;6.30;;;5.55;;
75603;SDS011;64187;51.010;13.792;2023-06-10T14:10:59;6.57;;;4.65;;
75603;SDS011;64187;51.010;13.792;2023-06-10T14:15:58;7.65;;;5.10;;
75603;SDS011;64187;51.010;13.792;2023-06-10T14:21:01;5.82;;;4.93;;
75603;SDS011;64187;51.010;13.792;2023-06-10T14:26:00;4.88;;;4.40;;
75603;SDS011;64187;51.010;13.792;2023-06-10T14:31:01;6.15;;;4.82;;
75603;SDS011;64187;51.010;13.792;2023-06-10T14:36:01;6.13;;;5.05;;
75603;SDS011;64187;51.010;13.792;2023-06-10T14:41:00;7.28;;;5.38;;
75603;SDS011;64187;51.010;13.792;2023-06-10T14:45:59;5.80;;;5.20;;
75603;SDS011;64187;51.010;13.792;2023-06-10T14:50:57;6.85;;;5.40;;
75603;SDS011;64187;51.010;13.792;2023-06-10T14:55:56;5.43;;;4.88;;
75603;SDS011;64187;51.010;13.792;2023-06-10T15:00:55;6.70;;;5.80;;
75603;SDS011;64187;51.010;13.792;2023-06-10T15:05:54;6.90;;;5.82;;
75603;SDS011;64187;51.010;13.792;2023-06-10T15:10:53;5.78;;;5.28;;
75603;SDS011;64187;51.010;13.792;2023-06-10T15:15:52;9.05;;;6.63;;
75603;SDS011;64187;51.010;13.792;2023-06-10T15:20:51;6.63;;;5.90;;
75603;SDS011;64187;51.010;13.792;2023-06-10T15:25:50;9.65;;;7.95;;
75603;SDS011;64187;51.010;13.792;2023-06-10T15:30:49;8.80;;;6.50;;
75603;SDS011;64187;51.010;13.792;2023-06-10T15:35:48;7.95;;;6.72;;
75603;SDS011;64187;51.010;13.792;2023-06-10T15:40:47;6.95;;;6.25;;
75603;SDS011;64187;51.010;13.792;2023-06-10T15:45:46;8.70;;;6.40;;
75603;SDS011;64187;51.010;13.792;2023-06-10T15:50:45;7.68;;;6.93;;
75603;SDS011;64187;51.010;13.792;2023-06-10T15:55:44;7.00;;;6.15;;
75603;SDS011;64187;51.010;13.792;2023-06-10T16:00:43;7.35;;;6.38;;
75603;SDS011;64187;51.010;13.792;2023-06-10T16:05:42;7.13;;;6.43;;
75603;SDS011;64187;51.010;13.792;2023-06-10T16:10:41;8.05;;;5.30;;
75603;SDS011;64187;51.010;13.792;2023-06-10T16:15:40;7.30;;;6.60;;
75603;SDS011;64187;51.010;13.792;2023-06-10T16:20:38;7.20;;;6.43;;
75603;SDS011;64187;51.010;13.792;2023-06-10T16:25:38;8.00;;;5.57;;
75603;SDS011;64187;51.010;13.792;2023-06-10T16:30:37;6.47;;;5.80;;
75603;SDS011;64187;51.010;13.792;2023-06-10T16:35:36;9.32;;;7.05;;
75603;SDS011;64187;51.010;13.792;2023-06-10T16:40:35;5.70;;;5.10;;
75603;SDS011;64187;51.010;13.792;2023-06-10T16:45:34;7.28;;;5.80;;
75603;SDS011;64187;51.010;13.792;2023-06-10T16:50:33;8.18;;;5.95;;
75603;SDS011;64187;51.010;13.792;2023-06-10T16:55:32;7.10;;;5.47;;
75603;SDS011;64187;51.010;13.792;2023-06-10T17:00:31;6.75;;;5.88;;
75603;SDS011;64187;51.010;13.792;2023-06-10T17:05:30;6.78;;;5.55;;
75603;SDS011;64187;51.010;13.792;2023-06-10T17:10:29;5.47;;;4.85;;
75603;SDS011;64187;51.010;13.792;2023-06-10T17:15:28;6.63;;;5.13;;
75603;SDS011;64187;51.010;13.792;2023-06-10T17:20:27;5.82;;;5.32;;
75603;SDS011;64187;51.010;13.792;2023-06-10T17:25:27;6.55;;;5.82;;
75603;SDS011;64187;51.010;13.792;2023-06-10T17:30:26;13.27;;;11.75;;
75603;SDS011;64187;51.010;13.792;2023-06-10T17:35:26;8.48;;;7.68;;
75603;SDS011;64187;51.010;13.792;2023-06-10T17:40:24;9.77;;;6.07;;
75603;SDS011;64187;51.010;13.792;2023-06-10T17:45:23;7.03;;;5.80;;
75603;SDS011;64187;51.010;13.792;2023-06-10T17:50:22;8.20;;;5.85;;
75603;SDS011;64187;51.010;13.792;2023-06-10T17:55:21;7.55;;;6.78;;
75603;SDS011;64187;51.010;13.792;2023-06-10T18:00:20;7.43;;;6.00;;
75603;SDS011;64187;51.010;13.792;2023-06-10T18:05:22;7.15;;;5.63;;
75603;SDS011;64187;51.010;13.792;2023-06-10T18:10:20;7.13;;;6.25;;
75603;SDS011;64187;51.010;13.792;2023-06-10T18:15:19;7.88;;;7.03;;
75603;SDS011;64187;51.010;13.792;2023-06-10T18:20:18;8.25;;;7.25;;
75603;SDS011;64187;51.010;13.792;2023-06-10T18:25:17;8.93;;;6.38;;
75603;SDS011;64187;51.010;13.792;2023-06-10T18:30:16;6.97;;;5.85;;
75603;SDS011;64187;51.010;13.792;2023-06-10T18:35:15;7.88;;;6.60;;
75603;SDS011;64187;51.010;13.792;2023-06-10T18:40:14;8.60;;;7.43;;
75603;SDS011;64187;51.010;13.792;2023-06-10T18:45:13;11.23;;;6.85;;
75603;SDS011;64187;51.010;13.792;2023-06-10T18:50:13;8.02;;;6.72;;
75603;SDS011;64187;51.010;13.792;2023-06-10T18:55:12;7.70;;;6.93;;
75603;SDS011;64187;51.010;13.792;2023-06-10T19:00:11;9.05;;;6.75;;
75603;SDS011;64187;51.010;13.792;2023-06-10T19:05:11;7.88;;;6.70;;
75603;SDS011;64187;51.010;13.792;2023-06-10T19:10:11;7.65;;;6.53;;
75603;SDS011;64187;51.010;13.792;2023-06-10T19:15:10;10.00;;;6.72;;
75603;SDS011;64187;51.010;13.792;2023-06-10T19:20:09;7.78;;;6.40;;
75603;SDS011;64187;51.010;13.792;2023-06-10T19:25:10;9.65;;;6.90;;
75603;SDS011;64187;51.010;13.792;2023-06-10T19:30:10;10.25;;;8.18;;
75603;SDS011;64187;51.010;13.792;2023-06-10T19:35:09;10.15;;;7.35;;
75603;SDS011;64187;51.010;13.792;2023-06-10T19:40:09;7.90;;;7.10;;
75603;SDS011;64187;51.010;13.792;2023-06-10T19:45:08;10.70;;;8.65;;
75603;SDS011;64187;51.010;13.792;2023-06-10T19:50:07;10.10;;;9.10;;
75603;SDS011;64187;51.010;13.792;2023-06-10T19:55:07;9.63;;;8.48;;
75603;SDS011;64187;51.010;13.792;2023-06-10T20:00:07;10.57;;;8.73;;
75603;SDS011;64187;51.010;13.792;2023-06-10T20:05:13;11.40;;;9.43;;
75603;SDS011;64187;51.010;13.792;2023-06-10T20:10:12;27.08;;;15.93;;
75603;SDS011;64187;51.010;13.792;2023-06-10T20:15:11;18.10;;;12.93;;
75603;SDS011;64187;51.010;13.792;2023-06-10T20:20:11;15.35;;;12.13;;
75603;SDS011;64187;51.010;13.792;2023-06-10T20:25:11;14.38;;;11.80;;
75603;SDS011;64187;51.010;13.792;2023-06-10T20:30:14;10.95;;;9.60;;
75603;SDS011;64187;51.010;13.792;2023-06-10T20:35:13;10.43;;;9.40;;
75603;SDS011;64187;51.010;13.792;2023-06-10T20:40:12;11.77;;;9.27;;
75603;SDS011;64187;51.010;13.792;2023-06-10T20:45:12;10.45;;;9.35;;
75603;SDS011;64187;51.010;13.792;2023-06-10T20:50:11;11.88;;;9.50;;
75603;SDS011;64187;51.010;13.792;2023-06-10T20:55:10;11.32;;;8.48;;
75603;SDS011;64187;51.010;13.792;2023-06-10T21:00:10;10.50;;;9.18;;
75603;SDS011;64187;51.010;13.792;2023-06-10T21:05:09;10.60;;;9.07;;
75603;SDS011;64187;51.010;13.792;2023-06-10T21:10:08;13.70;;;11.50;;
75603;SDS011;64187;51.010;13.792;2023-06-10T21:15:08;11.20;;;8.95;;
75603;SDS011;64187;51.010;13.792;2023-06-10T21:20:07;12.75;;;9.68;;
75603;SDS011;64187;51.010;13.792;2023-06-10T21:25:07;12.65;;;10.50;;
75603;SDS011;64187;51.010;13.792;2023-06-10T21:30:07;12.73;;;9.68;;
75603;SDS011;64187;51.010;13.792;2023-06-10T21:35:06;12.73;;;9.45;;
75603;SDS011;64187;51.010;13.792;2023-06-10T21:40:06;14.20;;;11.27;;
75603;SDS011;64187;51.010;13.792;2023-06-10T21:45:05;11.25;;;9.18;;
75603;SDS011;64187;51.010;13.792;2023-06-10T21:50:06;11.45;;;9.10;;
75603;SDS011;64187;51.010;13.792;2023-06-10T21:55:05;11.75;;;9.05;;
75603;SDS011;64187;51.010;13.792;2023-06-10T22:00:05;12.07;;;9.90;;
75603;SDS011;64187;51.010;13.792;2023-06-10T22:05:10;11.68;;;9.38;;
75603;SDS011;64187;51.010;13.792;2023-06-10T22:10:09;10.15;;;8.18;;
75603;SDS011;64187;51.010;13.792;2023-06-10T22:15:08;13.65;;;9.32;;
75603;SDS011;64187;51.010;13.792;2023-06-10T22:20:08;9.18;;;8.23;;
75603;SDS011;64187;51.010;13.792;2023-06-10T22:25:07;10.30;;;8.55;;
75603;SDS011;64187;51.010;13.792;2023-06-10T22:30:07;11.40;;;7.80;;
75603;SDS011;64187;51.010;13.792;2023-06-10T22:35:06;10.30;;;8.30;;
75603;SDS011;64187;51.010;13.792;2023-06-10T22:40:06;9.93;;;8.93;;
75603;SDS011;64187;51.010;13.792;2023-06-10T22:45:05;10.57;;;7.45;;
75603;SDS011;64187;51.010;13.792;2023-06-10T22:50:05;11.13;;;8.05;;
75603;SDS011;64187;51.010;13.792;2023-06-10T22:55:05;10.88;;;8.32;;
75603;SDS011;64187;51.010;13.792;2023-06-10T23:00:04;9.32;;;7.20;;
75603;SDS011;64187;51.010;13.792;2023-06-10T23:05:04;11.82;;;7.00;;
75603;SDS011;64187;51.010;13.792;2023-06-10T23:10:05;12.55;;;7.75;;
75603;SDS011;64187;51.010;13.792;2023-06-10T23:15:05;11.90;;;7.22;;
75603;SDS011;64187;51.010;13.792;2023-06-10T23:20:05;11.18;;;7.78;;
75603;SDS011;64187;51.010;13.792;2023-06-10T23:25:06;9.13;;;7.13;;
75603;SDS011;64187;51.010;13.792;2023-06-10T23:30:06;7.72;;;6.78;;
75603;SDS011;64187;51.010;13.792;2023-06-10T23:35:10;8.65;;;6.18;;
75603;SDS011;64187;51.010;13.792;2023-06-10T23:40:10;8.20;;;6.55;;
75603;SDS011;64187;51.010;13.792;2023-06-10T23:45:10;9.73;;;6.85;;
75603;SDS011;64187;51.010;13.792;2023-06-10T23:50:09;9.13;;;6.25;;
75603;SDS011;64187;51.010;13.792;2023-06-10T23:55:09;11.02;;;7.13;;
